Time;durP1;ratioP1;P1;durP2;ratioP2;P2;SDS_P1;SDS_P2;PMS_P1;PMS_P2;Temp;Humidity;BMP_temperature;BMP_pressure;BME280_temperature;BME280_humidity;BME280_pressure;Samples;Min_cycle;Max_cycle;Signal;HPM_P1;HPM_P2
2023/09/20 00:02:36;;;;;;;6.4;3.4;;;;;;;14.21;90.2;;;;;
2023/09/20 00:12:36;;;;;;;6.4;3.4;;;;;;;14;90.77;;;;;
2023/09/20 00:23:36;;;;;;;6.4;3.4;;;;;;;14.12;91.74;;;;;
2023/09/20 00:33:36;;;;;;;4.4;2.6;;;;;;;14.29;91.84;;;;;
2023/09/20 00:43:36;;;;;;;4.4;2.6;;;;;;;14.47;91.84;;;;;
2023/09/20 00:54:36;;;;;;;4.4;2.6;;;;;;;14.66;91.65;;;;;
2023/09/20 01:04:37;;;;;;;5.3;3.1;;;;;;;14.76;91.26;;;;;
2023/09/20 01:14:36;;;;;;;5.3;3.1;;;;;;;14.78;90.99;;;;;
2023/09/20 01:25:36;;;;;;;5.3;3.1;;;;;;;14.81;90.9;;;;;
2023/09/20 01:35:36;;;;;;;4.7;2.7;;;;;;;14.94;91.04;;;;;
2023/09/20 01:45:36;;;;;;;4.7;2.7;;;;;;;14.92;90.35;;;;;
2023/09/20 01:56:36;;;;;;;4.7;2.7;;;;;;;14.68;89.34;;;;;
2023/09/20 02:07:37;;;;;;;4.8;2.6;;;;;;;14.51;90.43;;;;;
2023/09/20 02:17:36;;;;;;;4.8;2.6;;;;;;;14.41;90.9;;;;;
2023/09/20 02:27:36;;;;;;;4.8;2.6;;;;;;;14.4;90.83;;;;;
2023/09/20 02:37:36;;;;;;;6.4;2.2;;;;;;;14.24;90.48;;;;;
2023/09/20 02:47:40;;;;;;;6.4;2.2;;;;;;;14.07;90.64;;;;;
2023/09/20 02:58:37;;;;;;;6.4;2.2;;;;;;;13.87;90.36;;;;;
2023/09/20 03:08:44;;;;;;;5.4;2.4;;;;;;;13.63;90.15;;;;;
2023/09/20 03:19:36;;;;;;;5.4;2.4;;;;;;;13.45;90.44;;;;;
2023/09/20 03:29:36;;;;;;;5.4;2.2;;;;;;;13.38;91.11;;;;;
2023/09/20 03:40:37;;;;;;;5.4;2.2;;;;;;;13.24;91.1;;;;;
2023/09/20 03:50:37;;;;;;;5.4;2.2;;;;;;;13.13;91.28;;;;;
2023/09/20 04:00:37;;;;;;;3.1;1.5;;;;;;;13;91.28;;;;;
2023/09/20 04:11:36;;;;;;;3.1;1.5;;;;;;;12.98;91.87;;;;;
2023/09/20 04:22:38;;;;;;;3.1;1.5;;;;;;;13.01;92.35;;;;;
2023/09/20 04:32:38;;;;;;;4.1;1.9;;;;;;;12.89;91.76;;;;;
2023/09/20 04:43:37;;;;;;;4.1;1.9;;;;;;;12.84;91.72;;;;;
2023/09/20 04:54:36;;;;;;;4.1;1.9;;;;;;;13.04;92.73;;;;;
2023/09/20 05:04:36;;;;;;;4;1.8;;;;;;;13.21;92.66;;;;;
2023/09/20 05:14:36;;;;;;;4;1.8;;;;;;;13.45;92.78;;;;;
2023/09/20 05:25:37;;;;;;;4;1.8;;;;;;;13.7;92.56;;;;;
2023/09/20 05:36:37;;;;;;;4.3;2;;;;;;;14.06;92.5;;;;;
2023/09/20 05:46:36;;;;;;;4.3;2;;;;;;;14.44;91.95;;;;;
2023/09/20 05:57:36;;;;;;;4.3;2;;;;;;;14.94;91.61;;;;;
2023/09/20 06:07:36;;;;;;;6.5;2.3;;;;;;;15.4;90.94;;;;;
2023/09/20 06:18:36;;;;;;;6.5;2.3;;;;;;;15.75;88.98;;;;;
2023/09/20 06:29:36;;;;;;;5.4;2.5;;;;;;;16.39;89.41;;;;;
2023/09/20 06:39:36;;;;;;;5.4;2.5;;;;;;;16.72;87.13;;;;;
2023/09/20 06:50:37;;;;;;;5.4;2.5;;;;;;;17.07;86.02;;;;;
2023/09/20 07:00:36;;;;;;;4.5;2.1;;;;;;;17.4;83.39;;;;;
2023/09/20 07:11:37;;;;;;;4.5;2.1;;;;;;;17.7;81.31;;;;;
2023/09/20 07:22:38;;;;;;;4.5;2.1;;;;;;;17.99;81.55;;;;;
2023/09/20 07:33:38;;;;;;;4.1;2.1;;;;;;;18.49;80.39;;;;;
2023/09/20 07:43:37;;;;;;;4.1;2.1;;;;;;;18.82;79.46;;;;;
2023/09/20 07:54:36;;;;;;;4.1;2.1;;;;;;;19.31;76.9;;;;;
2023/09/20 08:04:37;;;;;;;5.1;2.3;;;;;;;19.42;71.22;;;;;
2023/09/20 08:15:42;;;;;;;5.1;2.3;;;;;;;19.66;68.98;;;;;
2023/09/20 09:08:36;;;;;;;3.1;1.5;;;;;;;20.51;64.24;;;;;
2023/09/20 09:18:36;;;;;;;3.1;1.5;;;;;;;20.63;61.96;;;;;
2023/09/20 09:29:36;;;;;;;5;1.9;;;;;;;20.82;63.52;;;;;
2023/09/20 09:39:36;;;;;;;5;1.9;;;;;;;21.15;62.83;;;;;
2023/09/20 09:50:38;;;;;;;5;1.9;;;;;;;20.92;62.12;;;;;
2023/09/20 10:01:37;;;;;;;3.1;1.6;;;;;;;21.37;61.78;;;;;
2023/09/20 10:11:37;;;;;;;3.1;1.6;;;;;;;21.53;59.94;;;;;
2023/09/20 10:22:41;;;;;;;3.1;1.6;;;;;;;21.79;61.09;;;;;
2023/09/20 10:32:36;;;;;;;3.5;1.9;;;;;;;21.8;59.06;;;;;
2023/09/20 10:43:36;;;;;;;3.5;1.9;;;;;;;22.01;58.62;;;;;
2023/09/20 10:54:38;;;;;;;3.5;1.9;;;;;;;22.41;56.18;;;;;
2023/09/20 11:04:37;;;;;;;3.2;1.3;;;;;;;22.49;57.59;;;;;
2023/09/20 11:15:41;;;;;;;3.2;1.3;;;;;;;22.69;55.24;;;;;
2023/09/20 11:26:36;;;;;;;3.2;1.3;;;;;;;22.86;53.5;;;;;
2023/09/20 11:36:37;;;;;;;2.6;1.1;;;;;;;22.8;55.77;;;;;
2023/09/20 11:46:37;;;;;;;2.6;1.1;;;;;;;22.87;54.81;;;;;
2023/09/20 11:57:36;;;;;;;2.6;1.1;;;;;;;23.14;54.42;;;;;
2023/09/20 12:07:36;;;;;;;3;1.3;;;;;;;23.25;54.55;;;;;
2023/09/20 12:18:37;;;;;;;3;1.3;;;;;;;23.25;54.32;;;;;
2023/09/20 12:28:38;;;;;;;3;1.3;;;;;;;23.52;54.03;;;;;
2023/09/20 12:39:38;;;;;;;6.1;1.5;;;;;;;23.43;52.85;;;;;
2023/09/20 12:50:37;;;;;;;6.1;1.5;;;;;;;23.46;53.46;;;;;
2023/09/20 13:00:36;;;;;;;3.5;1.4;;;;;;;23.53;54.35;;;;;
2023/09/20 13:11:36;;;;;;;3.5;1.4;;;;;;;23.46;53.21;;;;;
2023/09/20 13:22:36;;;;;;;3.5;1.4;;;;;;;23.7;55.34;;;;;
2023/09/20 13:32:36;;;;;;;4;1.9;;;;;;;23.87;54.32;;;;;
2023/09/20 13:42:37;;;;;;;4;1.9;;;;;;;23.92;54.03;;;;;
2023/09/20 13:52:38;;;;;;;4;1.9;;;;;;;23.99;52.73;;;;;
2023/09/20 14:03:37;;;;;;;3.7;1.4;;;;;;;24.24;53.21;;;;;
2023/09/20 14:13:38;;;;;;;3.7;1.4;;;;;;;24.28;54.33;;;;;
2023/09/20 14:23:37;;;;;;;3.7;1.4;;;;;;;24.4;52.58;;;;;
2023/09/20 14:34:36;;;;;;;3.9;1.7;;;;;;;24.4;52.11;;;;;
2023/09/20 14:44:37;;;;;;;3.9;1.7;;;;;;;24.54;52.96;;;;;
2023/09/20 14:55:37;;;;;;;3.9;1.7;;;;;;;24.44;53.15;;;;;
2023/09/20 15:05:38;;;;;;;2.7;1.5;;;;;;;24.46;53.07;;;;;
2023/09/20 15:16:36;;;;;;;2.7;1.5;;;;;;;25.46;51.05;;;;;
2023/09/20 15:26:37;;;;;;;2.7;1.5;;;;;;;28.22;45.82;;;;;
2023/09/20 15:36:36;;;;;;;3.3;1.5;;;;;;;29.9;40.46;;;;;
2023/09/20 15:47:37;;;;;;;3.3;1.5;;;;;;;30.59;39.77;;;;;
2023/09/20 15:57:37;;;;;;;3.3;1.5;;;;;;;30.92;40.18;;;;;
2023/09/20 16:07:37;;;;;;;3.4;1.3;;;;;;;29.74;47.05;;;;;
2023/09/20 16:18:37;;;;;;;3.4;1.3;;;;;;;28.88;46.66;;;;;
2023/09/20 16:29:37;;;;;;;3.4;1.3;;;;;;;27.3;47.75;;;;;
2023/09/20 16:39:37;;;;;;;5;2.6;;;;;;;24.75;53.29;;;;;
2023/09/20 16:50:37;;;;;;;5;2.6;;;;;;;22.64;61.29;;;;;
2023/09/20 17:01:37;;;;;;;7.8;3;;;;;;;21.24;67.04;;;;;
2023/09/20 17:12:37;;;;;;;7.8;3;;;;;;;20.14;68.73;;;;;
2023/09/20 17:23:37;;;;;;;7.8;3;;;;;;;19.32;72.68;;;;;
2023/09/20 17:34:37;;;;;;;6.1;3.1;;;;;;;18.64;74.94;;;;;
2023/09/20 17:44:37;;;;;;;6.1;3.1;;;;;;;18.21;76.06;;;;;
2023/09/20 17:54:37;;;;;;;6.1;3.1;;;;;;;17.89;77.13;;;;;
2023/09/20 18:05:37;;;;;;;6.4;3.1;;;;;;;17.66;76.66;;;;;
2023/09/20 18:15:37;;;;;;;6.4;3.1;;;;;;;17.4;77.44;;;;;
2023/09/20 18:25:37;;;;;;;6.4;3.1;;;;;;;17.27;78.15;;;;;
2023/09/20 18:36:37;;;;;;;6.5;4;;;;;;;17.14;78.33;;;;;
2023/09/20 18:46:37;;;;;;;6.5;4;;;;;;;16.88;78.21;;;;;
2023/09/20 18:56:37;;;;;;;6.5;4;;;;;;;16.6;79.83;;;;;
2023/09/20 19:17:37;;;;;;;6.5;4.2;;;;;;;16;80.85;;;;;
2023/09/20 19:28:37;;;;;;;6.5;4.2;;;;;;;15.74;82.06;;;;;
2023/09/20 19:38:37;;;;;;;11;5.6;;;;;;;15.54;83.09;;;;;
2023/09/20 19:48:37;;;;;;;11;5.6;;;;;;;15.34;83.45;;;;;
2023/09/20 19:58:37;;;;;;;11;5.6;;;;;;;15.16;84.45;;;;;
2023/09/20 20:09:37;;;;;;;8.8;4.8;;;;;;;15;85.15;;;;;
2023/09/20 20:19:37;;;;;;;8.8;4.8;;;;;;;14.87;85.43;;;;;
2023/09/20 20:30:37;;;;;;;13.5;6;;;;;;;14.65;87.58;;;;;
2023/09/20 20:41:37;;;;;;;13.5;6;;;;;;;14.62;87.81;;;;;
2023/09/20 20:52:38;;;;;;;13.5;6;;;;;;;14.6;89.53;;;;;
2023/09/20 21:02:37;;;;;;;13.7;9.1;;;;;;;14.54;90.36;;;;;
2023/09/20 21:13:37;;;;;;;13.7;9.1;;;;;;;14.53;90.41;;;;;
2023/09/20 21:24:37;;;;;;;13.7;9.1;;;;;;;14.44;89.72;;;;;
2023/09/20 21:34:37;;;;;;;11.4;7.2;;;;;;;14.33;89.02;;;;;
2023/09/20 21:45:37;;;;;;;11.4;7.2;;;;;;;14.23;88.51;;;;;
2023/09/20 21:56:37;;;;;;;11.4;7.2;;;;;;;14.11;89.08;;;;;
2023/09/20 22:06:38;;;;;;;9.8;5.5;;;;;;;14.04;89.29;;;;;
2023/09/20 22:17:37;;;;;;;9.8;5.5;;;;;;;14;89.68;;;;;
2023/09/20 22:28:37;;;;;;;9.8;5.5;;;;;;;13.91;89.93;;;;;
2023/09/20 22:39:37;;;;;;;10.8;6.2;;;;;;;13.82;90.12;;;;;
2023/09/20 22:50:38;;;;;;;10.8;6.2;;;;;;;13.83;89.76;;;;;
2023/09/20 23:00:43;;;;;;;7.7;4.5;;;;;;;13.76;89.3;;;;;
2023/09/20 23:10:41;;;;;;;7.7;4.5;;;;;;;13.64;89.33;;;;;
2023/09/20 23:20:39;;;;;;;7.7;4.5;;;;;;;13.53;88.75;;;;;
2023/09/20 23:30:37;;;;;;;8.9;5.4;;;;;;;13.33;89.31;;;;;
2023/09/20 23:41:37;;;;;;;8.9;5.4;;;;;;;13.26;88.97;;;;;
2023/09/20 23:51:37;;;;;;;8.9;5.4;;;;;;;13.13;89.4;;;;;
